createdAt,value
2023-03-13T00:01:25.119Z,6.60
2023-03-13T00:03:52.012Z,6.60
2023-03-13T00:06:19.057Z,6.50
2023-03-13T00:08:45.927Z,6.50
2023-03-13T00:11:14.364Z,6.40
2023-03-13T00:13:42.935Z,6.40
2023-03-13T00:16:14.194Z,6.40
2023-03-13T00:18:46.686Z,6.40
2023-03-13T00:21:13.364Z,6.30
2023-03-13T00:23:40.291Z,6.40
2023-03-13T00:26:09.465Z,6.40
2023-03-13T00:28:37.647Z,6.40
2023-03-13T00:31:06.491Z,6.40
2023-03-13T00:33:34.565Z,6.40
2023-03-13T00:36:04.938Z,6.40
2023-03-13T00:38:32.489Z,6.40
2023-03-13T00:41:00.974Z,6.40
2023-03-13T00:43:28.080Z,6.40
2023-03-13T00:45:54.948Z,6.40
2023-03-13T00:48:22.329Z,6.50
2023-03-13T00:50:49.513Z,6.40
2023-03-13T00:53:16.290Z,6.40
2023-03-13T00:56:00.601Z,6.40
2023-03-13T00:58:28.870Z,6.40
2023-03-13T01:00:56.230Z,6.50
2023-03-13T01:03:26.114Z,6.50
2023-03-13T01:06:02.395Z,6.60
2023-03-13T01:08:29.700Z,6.70
2023-03-13T01:11:07.092Z,6.80
2023-03-13T01:13:34.390Z,7.10
2023-03-13T01:16:04.478Z,8.30
2023-03-13T01:18:31.435Z,7.30
2023-03-13T01:20:58.158Z,7.40
2023-03-13T01:23:25.746Z,7.30
2023-03-13T01:25:53.807Z,7.30
2023-03-13T01:28:20.545Z,7.30
2023-03-13T01:30:47.318Z,7.30
2023-03-13T01:33:14.075Z,7.40
2023-03-13T01:35:42.034Z,7.40
2023-03-13T01:38:09.081Z,7.40
2023-03-13T01:40:45.840Z,7.50
2023-03-13T01:43:26.184Z,7.50
2023-03-13T01:45:59.331Z,7.50
2023-03-13T01:48:43.326Z,7.60
2023-03-13T01:51:21.330Z,7.70
2023-03-13T01:53:52.669Z,7.70
2023-03-13T01:56:23.695Z,7.80
2023-03-13T01:58:52.263Z,7.90
2023-03-13T02:01:20.154Z,7.90
2023-03-13T02:03:50.011Z,8.00
2023-03-13T02:06:17.832Z,8.00
2023-03-13T02:08:52.688Z,8.00
2023-03-13T02:11:28.901Z,8.00
2023-03-13T02:13:56.472Z,8.10
2023-03-13T02:16:24.102Z,7.90
2023-03-13T02:18:50.888Z,8.20
2023-03-13T02:21:32.018Z,8.00
2023-03-13T02:24:09.952Z,8.00
2023-03-13T02:26:36.681Z,8.10
2023-03-13T02:29:03.471Z,8.20
2023-03-13T02:31:31.593Z,8.30
2023-03-13T02:34:00.670Z,8.20
2023-03-13T02:36:30.533Z,8.30
2023-03-13T02:39:02.619Z,8.30
2023-03-13T02:41:30.221Z,8.40
2023-03-13T02:43:56.982Z,8.30
2023-03-13T02:46:23.707Z,8.40
2023-03-13T02:48:52.864Z,8.30
2023-03-13T02:51:29.465Z,8.30
2023-03-13T02:54:01.825Z,8.20
2023-03-13T02:56:33.600Z,8.10
2023-03-13T02:59:00.550Z,8.10
2023-03-13T03:01:27.259Z,8.00
2023-03-13T03:03:54.017Z,8.10
2023-03-13T03:06:21.158Z,8.10
2023-03-13T03:08:47.929Z,8.10
2023-03-13T03:11:14.747Z,8.10
2023-03-13T03:13:41.632Z,8.10
2023-03-13T03:16:11.931Z,7.90
2023-03-13T03:18:39.145Z,7.90
2023-03-13T03:21:06.779Z,7.80
2023-03-13T03:23:34.274Z,7.80
2023-03-13T03:26:01.744Z,7.70
2023-03-13T03:28:28.913Z,7.60
2023-03-13T03:30:57.769Z,7.50
2023-03-13T03:33:24.791Z,7.50
2023-03-13T03:35:51.485Z,7.50
2023-03-13T03:38:18.271Z,7.50
2023-03-13T03:40:44.994Z,7.40
2023-03-13T03:43:11.651Z,7.40
2023-03-13T03:45:38.284Z,7.40
2023-03-13T03:48:05.275Z,7.40
2023-03-13T03:50:31.934Z,7.30
2023-03-13T03:52:58.606Z,7.30
2023-03-13T03:55:25.293Z,7.30
2023-03-13T03:57:52.051Z,7.30
2023-03-13T04:00:19.808Z,7.30
2023-03-13T04:02:46.466Z,7.30
2023-03-13T04:05:13.276Z,7.30
2023-03-13T04:07:39.947Z,7.30
2023-03-13T04:10:07.271Z,7.30
2023-03-13T04:12:34.096Z,7.20
2023-03-13T04:15:00.776Z,7.20
2023-03-13T04:17:27.610Z,7.30
2023-03-13T04:19:54.258Z,3.30
2023-03-13T04:22:20.974Z,7.30
2023-03-13T04:24:47.734Z,7.60
2023-03-13T04:27:15.525Z,7.90
2023-03-13T04:29:42.223Z,8.10
2023-03-13T04:32:08.942Z,8.20
2023-03-13T04:34:35.842Z,8.40
2023-03-13T04:37:02.814Z,8.50
2023-03-13T04:39:30.950Z,8.50
2023-03-13T04:41:58.665Z,8.50
2023-03-13T04:44:25.372Z,8.50
2023-03-13T04:46:52.114Z,8.30
2023-03-13T04:49:19.179Z,8.50
2023-03-13T04:51:46.258Z,8.40
2023-03-13T04:54:13.329Z,8.40
2023-03-13T04:56:44.370Z,8.40
2023-03-13T04:59:12.906Z,8.40
2023-03-13T05:01:40.814Z,8.40
2023-03-13T05:04:08.455Z,8.30
2023-03-13T05:06:35.191Z,8.20
2023-03-13T05:09:02.828Z,8.40
2023-03-13T05:11:30.065Z,8.40
2023-03-13T05:13:56.935Z,8.30
2023-03-13T05:16:23.752Z,8.40
2023-03-13T05:18:50.415Z,8.30
2023-03-13T05:21:17.359Z,8.40
2023-03-13T05:23:44.148Z,8.40
2023-03-13T05:26:10.886Z,8.30
2023-03-13T05:28:37.592Z,8.30
2023-03-13T05:31:04.539Z,8.40
2023-03-13T05:33:31.270Z,8.50
2023-03-13T05:35:57.937Z,8.50
2023-03-13T05:38:25.368Z,8.60
2023-03-13T05:40:51.999Z,8.70
2023-03-13T05:43:18.630Z,8.70
2023-03-13T05:45:45.326Z,8.70
2023-03-13T05:48:11.949Z,8.70
2023-03-13T05:50:38.725Z,5.60
2023-03-13T05:53:05.421Z,8.70
2023-03-13T05:55:32.097Z,8.70
2023-03-13T05:57:58.833Z,8.70
2023-03-13T06:00:25.626Z,8.70
2023-03-13T06:02:52.306Z,8.80
2023-03-13T06:05:18.952Z,8.50
2023-03-13T06:07:45.623Z,8.50
2023-03-13T06:10:12.707Z,8.60
2023-03-13T06:12:39.362Z,8.60
2023-03-13T06:15:07.286Z,8.70
2023-03-13T06:17:34.014Z,8.70
2023-03-13T06:20:00.663Z,8.70
2023-03-13T06:22:27.451Z,8.70
2023-03-13T06:24:54.117Z,8.70
2023-03-13T06:27:20.833Z,8.70
2023-03-13T06:29:47.498Z,8.70
2023-03-13T06:32:14.297Z,8.70
2023-03-13T06:34:41.004Z,8.70
2023-03-13T06:37:07.715Z,8.80
2023-03-13T06:39:34.457Z,8.80
2023-03-13T06:42:01.248Z,8.80
2023-03-13T06:44:27.958Z,8.80
2023-03-13T06:46:54.722Z,8.80
2023-03-13T06:49:21.441Z,8.80
2023-03-13T06:51:48.075Z,8.80
2023-03-13T06:54:14.888Z,8.90
2023-03-13T06:56:41.574Z,8.90
2023-03-13T06:59:08.230Z,8.90
2023-03-13T07:01:34.887Z,8.90
2023-03-13T07:04:01.650Z,9.00
2023-03-13T07:06:28.339Z,9.10
2023-03-13T07:08:55.145Z,9.20
2023-03-13T07:11:21.895Z,9.30
2023-03-13T07:13:48.524Z,9.30
2023-03-13T07:16:15.408Z,9.40
2023-03-13T07:18:42.266Z,9.50
2023-03-13T07:21:10.335Z,9.60
2023-03-13T07:23:37.033Z,9.70
2023-03-13T07:26:07.502Z,9.80
2023-03-13T07:28:37.328Z,10.00
2023-03-13T07:31:08.282Z,10.20
2023-03-13T07:33:35.257Z,10.20
2023-03-13T07:36:02.439Z,10.30
2023-03-13T07:38:29.124Z,10.20
2023-03-13T07:40:57.452Z,10.50
2023-03-13T07:43:25.051Z,10.70
2023-03-13T07:45:53.706Z,10.80
2023-03-13T07:48:21.377Z,10.90
2023-03-13T07:50:48.848Z,11.10
2023-03-13T07:53:21.045Z,11.20
2023-03-13T07:55:58.986Z,11.20
2023-03-13T07:58:28.670Z,11.30
2023-03-13T08:00:55.730Z,11.40
2023-03-13T08:03:23.410Z,11.40
2023-03-13T08:06:09.888Z,11.60
2023-03-13T08:08:37.930Z,11.70
2023-03-13T08:11:09.133Z,11.80
2023-03-13T08:13:36.328Z,11.90
2023-03-13T08:16:08.194Z,12.00
2023-03-13T08:18:36.217Z,8.50
2023-03-13T08:21:05.187Z,12.10
2023-03-13T08:23:32.551Z,12.10
2023-03-13T08:26:03.547Z,12.10
2023-03-13T08:28:30.326Z,12.10
2023-03-13T08:30:57.008Z,12.10
2023-03-13T08:33:23.841Z,12.10
2023-03-13T08:35:50.621Z,12.10
2023-03-13T08:38:18.445Z,12.20
2023-03-13T08:40:45.081Z,12.30
2023-03-13T08:43:11.956Z,12.40
2023-03-13T08:45:38.576Z,12.40
2023-03-13T08:48:05.314Z,12.40
2023-03-13T08:50:31.919Z,12.50
2023-03-13T08:52:58.596Z,12.50
2023-03-13T08:55:26.558Z,12.60
2023-03-13T08:57:53.269Z,12.70
2023-03-13T09:00:20.317Z,12.80
2023-03-13T09:02:47.017Z,12.90
2023-03-13T09:05:13.849Z,13.10
2023-03-13T09:07:40.839Z,13.40
2023-03-13T09:10:08.084Z,13.40
2023-03-13T09:12:35.042Z,13.80
2023-03-13T09:15:01.745Z,14.10
2023-03-13T09:17:28.387Z,14.30
2023-03-13T09:20:00.617Z,14.50
2023-03-13T09:22:27.949Z,14.70
2023-03-13T09:24:54.669Z,14.90
2023-03-13T09:27:21.327Z,15.10
2023-03-13T09:29:47.989Z,15.30
2023-03-13T09:32:14.704Z,15.40
2023-03-13T09:34:43.127Z,15.60
2023-03-13T09:37:09.814Z,15.80
2023-03-13T09:39:37.092Z,15.80
2023-03-13T09:42:22.698Z,15.80
2023-03-13T09:45:04.015Z,15.90
2023-03-13T09:47:41.291Z,16.50
2023-03-13T09:50:18.014Z,17.40
2023-03-13T09:52:44.913Z,18.40
2023-03-13T09:55:30.964Z,19.10
2023-03-13T09:58:10.519Z,19.10
2023-03-13T10:00:40.908Z,18.90
2023-03-13T10:03:11.829Z,18.50
2023-03-13T10:05:49.370Z,18.00
2023-03-13T10:08:23.058Z,17.50
2023-03-13T10:10:58.918Z,17.20
2023-03-13T10:13:53.493Z,16.80
2023-03-13T10:16:27.257Z,16.50
2023-03-13T10:18:57.068Z,16.10
2023-03-13T10:21:32.052Z,15.90
2023-03-13T10:24:06.028Z,15.80
2023-03-13T10:26:36.162Z,15.70
2023-03-13T10:29:17.172Z,15.60
2023-03-13T10:31:50.307Z,15.50
2023-03-13T10:34:17.007Z,15.40
2023-03-13T10:36:46.895Z,15.40
2023-03-13T10:39:30.087Z,15.40
2023-03-13T10:42:10.655Z,15.40
2023-03-13T10:44:37.709Z,15.30
2023-03-13T10:47:04.944Z,15.30
2023-03-13T10:49:32.404Z,15.20
2023-03-13T10:52:02.687Z,15.20
2023-03-13T10:54:30.904Z,15.10
2023-03-13T10:57:18.577Z,15.20
2023-03-13T10:59:48.756Z,14.90
2023-03-13T11:02:31.839Z,14.90
2023-03-13T11:04:59.810Z,14.80
2023-03-13T11:07:30.827Z,14.90
2023-03-13T11:10:19.659Z,14.90
2023-03-13T11:12:49.294Z,15.10
2023-03-13T11:15:20.308Z,15.40
2023-03-13T11:18:01.216Z,15.70
2023-03-13T11:20:32.949Z,15.90
2023-03-13T11:23:21.294Z,16.10
2023-03-13T11:26:27.807Z,16.30
2023-03-13T11:29:22.708Z,16.80
2023-03-13T11:31:54.492Z,17.40
2023-03-13T11:34:25.738Z,17.80
2023-03-13T11:36:59.295Z,17.80
2023-03-13T11:39:46.880Z,17.60
2023-03-13T11:42:40.160Z,17.40
2023-03-13T11:45:12.159Z,17.10
2023-03-13T11:47:53.885Z,16.80
2023-03-13T11:50:42.428Z,16.50
2023-03-13T11:53:30.090Z,16.30
2023-03-13T11:56:07.936Z,16.30
2023-03-13T11:58:54.917Z,16.30
2023-03-13T12:01:27.628Z,16.30
2023-03-13T12:04:00.157Z,16.30
2023-03-13T12:06:47.174Z,16.40
2023-03-13T12:09:25.723Z,16.40
2023-03-13T12:12:03.415Z,16.70
2023-03-13T12:14:43.740Z,16.90
2023-03-13T12:17:22.893Z,17.30
2023-03-13T12:20:12.328Z,17.80
2023-03-13T12:22:44.926Z,18.10
2023-03-13T12:25:20.015Z,18.50
2023-03-13T12:27:51.920Z,19.40
2023-03-13T12:30:40.915Z,20.50
2023-03-13T12:33:17.361Z,19.70
2023-03-13T12:35:53.159Z,22.00
2023-03-13T12:38:26.245Z,22.80
2023-03-13T12:41:12.936Z,23.50
2023-03-13T12:43:42.706Z,24.60
2023-03-13T12:46:22.242Z,25.70
2023-03-13T12:49:07.719Z,27.00
2023-03-13T12:51:54.766Z,27.90
2023-03-13T12:54:22.446Z,28.00
2023-03-13T12:57:29.127Z,27.50
2023-03-13T13:00:00.216Z,26.20
2023-03-13T13:02:30.516Z,26.60
2023-03-13T13:05:00.161Z,27.30
2023-03-13T13:07:34.220Z,26.00
2023-03-13T13:10:21.122Z,25.40
2023-03-13T13:13:15.142Z,24.20
2023-03-13T13:15:58.637Z,24.10
2023-03-13T13:18:28.331Z,24.30
2023-03-13T13:21:02.488Z,24.60
2023-03-13T13:23:34.592Z,24.50
2023-03-13T13:26:29.636Z,24.50
2023-03-13T13:29:02.038Z,25.20
2023-03-13T13:31:49.442Z,25.70
2023-03-13T13:34:31.794Z,26.20
2023-03-13T13:37:01.643Z,26.70
2023-03-13T13:39:48.158Z,27.30
2023-03-13T13:42:36.649Z,28.00
2023-03-13T13:45:04.854Z,28.70
2023-03-13T13:47:33.756Z,29.30
2023-03-13T13:50:01.274Z,29.20
2023-03-13T13:52:43.539Z,29.30
2023-03-13T13:55:30.286Z,29.30
2023-03-13T13:58:10.754Z,29.30
2023-03-13T14:00:45.636Z,28.80
2023-03-13T14:03:23.358Z,28.30
2023-03-13T14:05:55.239Z,27.20
2023-03-13T14:08:27.308Z,26.30
2023-03-13T14:11:25.000Z,25.10
2023-03-13T14:14:11.691Z,23.80
2023-03-13T14:16:39.340Z,22.90
2023-03-13T14:19:19.350Z,22.40
2023-03-13T14:21:46.052Z,22.00
2023-03-13T14:24:14.727Z,21.90
2023-03-13T14:26:43.733Z,21.60
2023-03-13T14:29:17.839Z,21.30
2023-03-13T14:31:52.881Z,21.10
2023-03-13T14:34:19.947Z,20.80
2023-03-13T14:36:51.462Z,20.60
2023-03-13T14:39:39.988Z,20.50
2023-03-13T14:42:11.857Z,20.50
2023-03-13T14:44:40.189Z,20.70
2023-03-13T14:47:12.219Z,21.70
2023-03-13T14:49:39.015Z,22.90
2023-03-13T14:52:17.197Z,23.40
2023-03-13T14:55:04.424Z,24.20
2023-03-13T14:57:32.510Z,26.10
2023-03-13T15:00:34.940Z,27.30
2023-03-13T15:03:17.260Z,28.00
2023-03-13T15:05:46.676Z,27.80
2023-03-13T15:08:17.164Z,27.50
2023-03-13T15:10:44.296Z,27.60
2023-03-13T15:13:23.474Z,28.30
2023-03-13T15:15:51.087Z,29.20
2023-03-13T15:18:20.916Z,29.60
2023-03-13T15:20:52.524Z,29.00
2023-03-13T15:23:19.799Z,28.70
2023-03-13T15:25:47.059Z,28.50
2023-03-13T15:28:16.657Z,27.80
2023-03-13T15:30:45.021Z,27.60
2023-03-13T15:33:15.828Z,26.80
2023-03-13T15:35:44.265Z,26.80
2023-03-13T15:38:14.831Z,27.30
2023-03-13T15:40:42.356Z,26.90
2023-03-13T15:43:09.572Z,27.30
2023-03-13T15:45:37.997Z,27.70
2023-03-13T15:48:13.630Z,28.10
2023-03-13T15:50:40.244Z,27.90
2023-03-13T15:53:17.181Z,27.90
2023-03-13T15:55:43.879Z,28.40
2023-03-13T16:00:40.965Z,28.80
2023-03-13T16:03:17.417Z,28.50
2023-03-13T16:05:44.113Z,28.40
2023-03-13T16:08:29.199Z,28.30
2023-03-13T16:11:00.664Z,28.10
2023-03-13T16:15:54.579Z,25.50
2023-03-13T16:18:23.607Z,24.00
2023-03-13T16:23:17.943Z,22.30
2023-03-13T16:25:45.784Z,21.80
2023-03-13T16:28:13.868Z,21.20
2023-03-13T16:30:43.552Z,21.20
2023-03-13T16:33:10.903Z,20.90
2023-03-13T16:35:38.220Z,20.20
2023-03-13T16:38:08.198Z,19.60
2023-03-13T16:40:35.200Z,18.80
2023-03-13T16:43:02.432Z,18.30
2023-03-13T16:45:29.228Z,18.20
2023-03-13T16:55:18.875Z,17.40
2023-03-13T16:57:45.939Z,17.30
2023-03-13T17:24:59.443Z,16.00
2023-03-13T17:32:21.301Z,15.70
2023-03-13T17:42:11.505Z,15.00
2023-03-13T17:47:17.760Z,14.80
2023-03-13T18:04:42.537Z,14.00
2023-03-13T18:37:03.899Z,13.90
2023-03-13T19:21:55.563Z,15.10
2023-03-13T20:55:34.129Z,10.80
2023-03-13T21:25:07.988Z,10.90
2023-03-13T21:32:30.046Z,10.90
2023-03-13T21:37:23.903Z,10.90
2023-03-13T22:16:55.817Z,9.70
2023-03-13T22:19:22.526Z,9.60
2023-03-13T22:24:16.309Z,9.50
2023-03-13T22:26:42.992Z,9.50
